Vladimir Milenkovic

Olheiro-Chefe - Vojvodina
6 Ago 2028
Domingo
Processo

Personalidade

Adaptabilidade (6) Ambição (6) Controvérsia (9) Lealdade (18) Pressão (17) Profissionalismo (9) Espírito Esportivo (5) Temperamento (19)

Perfil

Estilo de Treinamento Democrático
Licença Nacional B
Determinação 7
Gestão de Pessoas 12
Motivação 4
Disciplina 5
Satisfação no Trabalho
100%
Fadiga
0%
Função Olheiro-Chefe
Salário 45.0K p/s
Contrato 14.03.2029

Desempenho

Comportamento Bom
Eficácia do Treinamento
36%
Desenvolvimento do Jogador
25%
Prevenção de Lesões
35%
Implementação Tática
30%

Eventos Recentes

Avaliou um jogador agora
Participou de uma reunião de recrutamento agora
Participou de uma reunião de recrutamento agora
Recomendou um alvo de transferência agora
Recomendou um alvo de transferência agora
Recomendou um alvo de transferência 7d atrás
Recomendou um alvo de transferência 7d atrás
Recomendou um alvo de transferência 7d atrás

Monitorando agora

223
Jogador Clube Status Habilidade Confiança Observado Última observação Último voto
Jake Evans Crewe Alexandra Ativo 115 / 127 40% 4 31.07.2028 -
Lennart Karl TSG Hoffenheim Ativo 142 / 144 40% 1 31.07.2028 -
Owen Foye Swindon Town Ativo 80 / 102 40% 1 18.07.2028 -
Riquelme Thompson-Jones Accrington Stanley Ativo 108 / 115 40% 1 18.07.2028 -
Denis Grigorjev Arsenal Tula Ativo 96 / 92 40% 1 03.07.2028 -
Itumeleng Jali Spezia Ativo 119 / 115 40% 1 03.07.2028 -
Reggie Walsh Chelsea Ativo 124 / 136 40% 1 26.06.2028 -
Celías Ingenthron Platense Ativo 111 / 115 40% 1 26.06.2028 -
Andrija Bulatović Chamois Niortais Ativo 124 / 130 40% 4 19.06.2028 -
Jenson Jones Walsall Ativo 107 / 109 40% 1 12.06.2028 -
David Buchta Radnicki 1923 Perdido 119 / 119 58% 1 06.06.2028 -
Giovanni Leoni Lincoln City Ativo 136 / 154 40% 1 31.05.2028 -
Adnan Nainggolan KV Oostende Ativo 101 / 120 40% 1 31.05.2028 -
Darlvin Yeboah Bechem United Ativo 88 / 100 40% 6 30.05.2028 -
Joshua Ajala Walsall Ativo 110 / 114 40% 2 29.05.2028 -
Dmitry Nikitin Baltika Ativo 86 / 97 40% 1 29.05.2028 -
Rahul Sharma Pontedera Ativo 90 / 97 40% 1 26.05.2028 -
Luka Andrade Montevideo City Torque Ativo 99 / 114 40% 2 25.05.2028 -
Igor Tyjon Barrow AFC Ativo 116 / 131 40% 2 25.05.2028 -
Francisco Souza Silva Feirense Ativo 113 / 118 40% 4 24.05.2028 -
Ivan Denysov Rukh Ativo 84 / 101 40% 2 24.05.2028 -
Nathan Mbala FC Metz Ativo 99 / 106 40% 5 23.05.2028 -
Nazif Inoussa Benfica Ativo 76 / 87 40% 3 22.05.2028 -
João Tavares Porto Ativo 82 / 94 40% 2 20.05.2028 -
Rémi Himbert AC Ajaccio Ativo 119 / 122 40% 1 20.05.2028 -
Cristian Carrara Guidonia Montecelio Ativo 99 / 104 40% 4 19.05.2028 -
Ousseynou Seck Randers Ativo 108 / 140 40% 1 18.05.2028 -
Luca Williams-Barnett Walsall Ativo 121 / 135 40% 6 16.05.2028 -
Baba N'Diaye Chaika Ativo 88 / 90 40% 3 13.05.2028 -
Otto Stange Borussia Mönchengladbach Ativo 136 / 128 40% 2 12.05.2028 -
Andrea Luongo Trento Ativo 105 / 105 40% 1 10.05.2028 -
Artur Kozyrev Volna Ativo 98 / 89 40% 1 09.05.2028 -
Fletcher Boyd Accrington Stanley Ativo 108 / 108 40% 3 08.05.2028 -
Mattia Esposito Virtus Verona Ativo 86 / 87 40% 1 08.05.2028 -
Sam Amo-Ameyaw RC Strasbourg Ativo 123 / 138 40% 1 07.05.2028 -
Ryan Oné Sheffield United Ativo 119 / 128 40% 2 02.05.2028 -
Kylian Kouakou Valenciennes Ativo 91 / 103 40% 2 24.04.2028 -
Mahmoud Salah El Dakhleya Ativo 70 / 105 40% 1 20.04.2028 -
Louis Zecevic-John Colchester United Ativo 93 / 102 40% 1 20.04.2028 -
Kaye Furo Reading Ativo 115 / 120 40% 1 19.04.2028 -
Jamal Iddrissou Pergolettese Ativo 113 / 112 40% 1 13.04.2028 -
Lovre Kulušić Dinamo Zagreb Ativo 108 / 118 40% 1 10.04.2028 -
Luke Baartman Ajax Cape Town Ativo 120 / 122 40% 7 09.04.2028 -
Luca Meirelles Kudrivka Ativo 115 / 124 40% 4 09.04.2028 -
Siyabonga Mabena Bidvest Wits Ativo 128 / 144 40% 6 06.04.2028 -
Ryan Kavuma-McQueen Accrington Stanley Ativo 126 / 131 40% 3 06.04.2028 -
Michael Noumon Heart of Lions Ativo 69 / 88 40% 4 05.04.2028 -
Ahmed Khaled Paralimni Ativo 100 / 120 40% 1 04.04.2028 -
Nana Nuhu WAFA Ativo 84 / 99 40% 4 19.03.2028 -
Kerim Alajbegović Modena Ativo 135 / 138 40% 3 16.03.2028 -
Mads Abrahamsen Zenit Penza Ativo 98 / 84 40% 2 16.03.2028 -
Gomolemo Kekana Maritzburg United Ativo 106 / 110 40% 1 15.03.2028 -
Lander Astiazarán Real Sociedad Ativo 110 / 109 40% 5 13.03.2028 -
Víctor Guzmán Sporting CP Ativo 101 / 118 40% 5 12.03.2028 -
Josh Nichols Oldham Athletic Ativo 112 / 125 40% 4 12.03.2028 -
Ben Broggio Mansfield Town Ativo 110 / 122 40% 2 11.03.2028 -
Henrique Carmo Sochi Ativo 134 / 133 40% 1 11.03.2028 -
Oscar Schwartau Norwich City Ativo 136 / 128 40% 2 09.03.2028 -
Luighi Palmeiras Ativo 115 / 106 40% 2 09.03.2028 -
Ryan McAidoo Oldham Athletic Ativo 127 / 136 40% 2 08.03.2028 -
Luke Brooke-Smith Chesterfield Ativo 106 / 116 40% 1 08.03.2028 -
Isaque Obolon Ativo 130 / 125 40% 2 06.03.2028 -
Ruben Ramos LA Galaxy Ativo 106 / 97 40% 1 22.02.2028 -
Leo Pecover Swindon Town Ativo 101 / 112 40% 1 19.02.2028 -
Amin Nabizada Exeter City Ativo 104 / 111 40% 2 17.02.2028 -
Gabe Forsyth Colchester United Ativo 102 / 123 40% 1 12.02.2028 -
Xavier Jodamus Jomo Cosmos Ativo 85 / 82 40% 1 08.02.2028 -
Rafael Lobato Rio Ave Ativo 117 / 119 40% 1 07.02.2028 -
Alphadjo Cissé Lecce Ativo 129 / 134 40% 1 05.02.2028 -
Romelle Donovan Brentford Ativo 131 / 128 40% 2 04.02.2028 -
Eduardo Fernandes Benfica Ativo 123 / 115 40% 1 03.02.2028 -
Nestory Irankunda Watford Ativo 119 / 133 40% 1 03.02.2028 -
Matias Siltanen Malmo FF Ativo 128 / 124 40% 2 31.01.2028 -
Rio Ngumoha Plymouth Argyle Ativo 145 / 140 40% 1 31.01.2028 -
Nicolás Barros Schelotto Gimnasia La Plata Ativo 115 / 127 40% 2 30.01.2028 -
Bautista Carboni Defensores Unidos Ativo 102 / 119 40% 4 29.01.2028 -
Zane Albarus Shrewsbury Town Ativo 104 / 110 40% 3 27.01.2028 -
Tyron Kariuki KCB Ativo 76 / 87 40% 3 27.01.2028 -
Matija Marsenić Cukaricki Ativo 104 / 93 58% 1 24.01.2028 Aprovar
Dânio Djassi Portimonense Ativo 111 / 122 40% 1 24.01.2028 -
Alex Verón Vélez Ativo 116 / 133 40% 1 24.01.2028 -
Joel Medina Independiente Ativo 116 / 132 40% 1 05.12.2027 -
Chimobi Igwilo Rangers International Ativo 93 / 109 40% 2 04.12.2027 -
Juan Camilo Córdoba Deportivo Pereira Ativo 77 / 94 40% 1 03.12.2027 -
Matías Arias Vélez Ativo 122 / 110 40% 3 02.12.2027 -
Victor Hernandez Santa Fe Ativo 122 / 116 40% 1 02.12.2027 -
Tiago Pucciarelli IF Elfsborg Ativo 89 / 104 40% 1 30.11.2027 -
Alex Amaefula Kun Khalifat Ativo 96 / 89 40% 2 27.11.2027 -
Dániel Pintér Inter Miami CF Ativo 98 / 107 40% 1 27.11.2027 -
Nicolás Ferreira Artigas Ativo 74 / 98 40% 1 24.11.2027 -
Pedro Baltika Ativo 144 / 152 40% 1 24.11.2027 -
Jayden Danns Bradford City Ativo 127 / 146 40% 1 23.11.2027 -
Christ Wawa Gefle Ativo 115 / 102 40% 2 22.11.2027 -
Julián Bragado Morón Ativo 92 / 79 40% 1 22.11.2027 -
Albert Aleksanjan IFK Norrkoping Ativo 101 / 113 40% 1 21.11.2027 -
Kaique Kenji Fortaleza Ativo 126 / 122 40% 1 19.11.2027 -
Joseph Abah Remo Stars Ativo 102 / 110 40% 1 18.11.2027 -
Lucas Nicol Mjondalen Ativo 74 / 90 40% 1 16.11.2027 -
Giovanni Baroni Talleres Ativo 107 / 114 40% 2 14.11.2027 -
Hassan Beja AFC Leopards Ativo 74 / 94 40% 1 13.11.2027 -
Francisco Triver River Plate Ativo 95 / 92 40% 1 12.11.2027 -
Jeremías Merlo Gimnasia La Plata Ativo 121 / 115 40% 1 09.11.2027 -
Joel Ezra Enyimba Ativo 80 / 92 40% 3 04.11.2027 -
Matías Canedo Rampla Juniors Ativo 95 / 87 40% 1 01.11.2027 -
Lucas Camejo River Plate Ativo 80 / 91 40% 2 04.10.2027 -
Nahuel Leivas Montevideo City Torque Ativo 110 / 120 40% 1 04.10.2027 -
Serge Daura PWD Bamenda Ativo 97 / 118 40% 3 18.08.2027 -
Peter Amidu Acquah Asante Kotoko Ativo 100 / 86 40% 2 18.08.2027 -
Temur Odilov Mara Sugar Ativo 67 / 87 40% 1 17.08.2027 -
Daniel Awuni Aduana Stars Ativo 88 / 105 40% 3 11.08.2027 -
Calum Agius Crewe Alexandra Ativo 108 / 94 40% 3 09.08.2027 -
Tiago Freitas Benfica Ativo 117 / 116 40% 1 06.08.2027 -
Gabriele Bertolini Vicenza Ativo 98 / 103 40% 1 06.08.2027 -
Othmane Maamma Watford Ativo 122 / 141 40% 2 05.08.2027 -
Cristiano La Sorsa Trapani Ativo 95 / 88 40% 1 03.08.2027 -
Stevan Manuel Benfica Ativo 107 / 118 40% 1 03.08.2027 -
André Miranda Porto Ativo 108 / 102 40% 2 13.07.2027 -
Mustapha Umar Kano Pillars Ativo 83 / 88 40% 1 13.07.2027 -
Mattia Della Rocca Pontedera Ativo 89 / 92 40% 1 06.07.2027 -
Christ Kouadio Radnik Surdulica Ativo 104 / 93 58% 1 21.06.2027 -
Gonçalo Oliveira Benfica Ativo 113 / 114 40% 1 06.06.2027 -
Riyad Idrissi Cagliari Ativo 124 / 126 40% 1 06.06.2027 -
Ramadan Ashour Sporting Cristal Ativo 120 / 120 67% 1 01.06.2027 Aprovar
Tamas Kleinheisler St. Pauli Ativo 114 / 121 66% 1 01.06.2027 Aprovar
Rhys Walters Port Vale Ativo 97 / 110 40% 1 01.06.2027 -
Máximo Seggio Crawley Town Ativo 84 / 89 40% 2 30.05.2027 -
Elijas Gunnergård Ortan Ahrobiznes Ativo 75 / 86 40% 1 29.05.2027 -
Mikel Gogorza Brondby Ativo 131 / 139 40% 2 27.05.2027 -
Rafael Moreno Atletico Venezuela Ativo 110 / 101 40% 3 27.05.2027 -
Miloš Jovičić Zabbar St. Patrick Ativo 87 / 101 40% 4 26.05.2027 -
Jan Bürger Northampton Town Ativo 111 / 112 40% 1 25.05.2027 -
Dilan Neves Benfica Ativo 74 / 93 40% 3 23.05.2027 -
Mateus Mané Burnley Ativo 135 / 136 40% 6 21.05.2027 -
Luka Đorđević Cukaricki Ativo 99 / 97 40% 3 19.05.2027 -
Maren Kefas Plateau United Ativo 84 / 86 40% 1 17.05.2027 -
Borna Knezović Casarano Ativo 103 / 113 40% 2 11.05.2027 -
Stanley Amon Bayelsa United Ativo 101 / 98 40% 4 10.05.2027 -
Alagie Wally Veres Ativo 83 / 103 40% 2 09.05.2027 -
Teboho Zwane Ajax Cape Town Ativo 79 / 105 40% 4 07.05.2027 -
Leo Castledine Middlesbrough Ativo 133 / 131 40% 6 06.05.2027 Observar
Njabulo Hlongwane AS Korofina Ativo 72 / 66 40% 1 06.05.2027 -
Ben Ahmed Kohili Paradou Ativo 113 / 111 40% 1 03.05.2027 -
Godbless Ayeke AS Bakaridjan Ativo 92 / 88 40% 2 01.05.2027 -
Fletcher Holman Swindon Town Ativo 82 / 88 40% 3 01.05.2027 -
Sergey Gaiduk Salyut Ativo 85 / 70 40% 3 30.04.2027 -
Dani Ángel Sampdoria Ativo 96 / 91 40% 4 27.04.2027 -
Alen Vukaj Alcione Milano Ativo 84 / 102 40% 1 27.04.2027 -
Abubakar Garba Nasarawa United Ativo 75 / 94 40% 2 24.04.2027 -
Lwanda Mbanjwa Platinum Stars Ativo 101 / 86 40% 4 23.04.2027 -
Jonás Luna Wanderers Ativo 116 / 125 40% 1 20.04.2027 -
David Fernández O'Higgins Ativo 101 / 121 40% 1 19.04.2027 -
Mike Themsen Randers Ativo 107 / 136 40% 1 19.04.2027 -
Vanja Dragojević Partizan Ativo 122 / 108 40% 2 18.04.2027 -
Rocco Vata Watford Ativo 121 / 129 40% 1 08.04.2027 -
Chineme Chinonso Ikorodu City Ativo 94 / 82 40% 1 29.03.2027 -
Eduardo Lozano Botafogo Ativo 146 / 144 40% 1 26.03.2027 -
Gosiame Ngobeni New Edubiase United Ativo 61 / 64 40% 1 24.03.2027 -
Will Lankshear Middlesbrough Ativo 126 / 116 40% 1 20.03.2027 -
Joseph George Aigle Royal de Moungo Ativo 100 / 104 40% 1 17.03.2027 -
Lorenzo De Leo Renate Ativo 92 / 94 40% 1 15.03.2027 -
Braiden Graham Everton Ativo 93 / 97 40% 1 13.03.2027 -
Sam Greenwood Bristol City Ativo 130 / 130 40% 1 18.01.2027 -
Sam Dalby Bolton Wanderers Ativo 120 / 109 40% 1 18.01.2027 -
Ar'jany Martha Rotherham United Ativo 100 / 114 40% 1 29.12.2026 -
Bongani Zungu Ajax Cape Town Ativo 130 / 136 40% 1 29.12.2026 -
Bienvenue Kanakimana Zbrojovka Brno Ativo 118 / 121 40% 2 28.12.2026 -
Tomáš Rigo Stoke City Ativo 138 / 132 40% 1 27.12.2026 -
Kristoffer Lund Birmingham Ativo 129 / 121 40% 1 27.12.2026 -
Lukáš Červ Viktoria Plzen Ativo 122 / 133 40% 1 26.12.2026 -
Cian Ashford Cardiff City Ativo 112 / 123 40% 1 25.12.2026 -
Fiete Arp OB Ativo 119 / 129 40% 1 25.12.2026 -
Juan Pablo Gallego Fehervar Ativo 112 / 108 40% 1 23.12.2026 -
Rabiu Abdullahi Bylis Ativo 86 / 103 40% 1 22.12.2026 -
Adam Randell Bristol City Ativo 125 / 130 40% 1 22.12.2026 -
Thomas Carrique Andorra Ativo 121 / 117 40% 2 21.12.2026 -
Bazoumana Touré Newcastle United Ativo 136 / 142 40% 1 21.12.2026 -
Milan Vukotić Partizan Ativo 132 / 113 40% 3 18.12.2026 Observar
Dominik Pleštil Bohemians 1905 Ativo 104 / 109 40% 1 16.12.2026 -
Tyrese Campbell Sheffield United Ativo 135 / 133 40% 1 15.12.2026 -
Max Johnston Derby County Ativo 133 / 121 40% 1 14.12.2026 -
Oliver Skipp Leicester City Ativo 137 / 133 40% 1 11.12.2026 -
Ali Ahmed Norwich City Ativo 122 / 124 40% 1 11.12.2026 -
Kirill Cheburakov Rostov Ativo 69 / 77 40% 1 10.12.2026 -
Alfie Doughty Millwall Ativo 129 / 119 40% 1 08.12.2026 -
Joel Bagan Cardiff City Ativo 113 / 106 40% 1 07.12.2026 -
Scott Twine Bristol City Ativo 129 / 125 40% 1 06.12.2026 -
Andrey Domotsev Mashuk Ativo 81 / 91 40% 1 06.12.2026 -
Jesus Ferreira Seattle Sounders Ativo 137 / 126 40% 1 04.12.2026 -
Juan Bezerra Zamalek Ativo 109 / 108 40% 3 03.12.2026 -
Jalal Abdullai Molde Ativo 99 / 109 40% 2 03.12.2026 -
Matías Contrera Hrvatski Dragovoljac Ativo 102 / 100 40% 1 03.12.2026 -
Manu Morlanes Mallorca Ativo 134 / 145 40% 1 01.12.2026 -
Cheick Oumar Souaré Viktoria Plzen Ativo 123 / 115 40% 1 01.12.2026 -
Arsen Adamov Akhmat Grozny Ativo 125 / 111 40% 1 30.11.2026 -
Marcelo Allende Mamelodi Sundowns Ativo 117 / 138 40% 1 30.11.2026 -
Oswin Appollis Orlando Pirates Ativo 121 / 121 40% 1 29.11.2026 -
Reda Khadra Qarabag Ativo 136 / 120 40% 2 28.11.2026 -
Maximo Ingravidi Colón Ativo 111 / 109 40% 1 27.11.2026 -
Thabang Matuludi Polokwane City Ativo 105 / 126 40% 1 27.11.2026 -
Bojica Nikčević Radnicki 1923 Ativo 111 / 101 40% 1 27.11.2026 -
Filip Kubala Banik Ostrava Ativo 128 / 112 40% 1 26.11.2026 -
Gizo Mamageishvili Sturm Graz Ativo 124 / 118 40% 1 26.11.2026 -
David Kalokoh Ajax Ativo 119 / 114 40% 1 24.11.2026 -
Marco Pašalić Orlando City Ativo 125 / 126 40% 1 24.11.2026 -
Themba Dala Black Aces Ativo 126 / 101 40% 1 21.11.2026 -
Sandi Balkovec NK Domzale Ativo 80 / 84 40% 1 20.11.2026 -
Luka Stojković Dinamo Zagreb Ativo 127 / 126 40% 1 16.11.2026 -
Daniel Kyerewaa Reading Ativo 110 / 119 40% 1 13.11.2026 -
Tio Cipot NK Maribor Ativo 123 / 120 40% 1 11.11.2026 -
Erik Botheim Viking Ativo 139 / 112 40% 1 06.11.2026 -
Jens Petter Hauge Bodo/Glimt Ativo 125 / 128 40% 1 04.11.2026 -
Tadeo Allende Inter Miami CF Ativo 134 / 112 40% 1 03.11.2026 -
Frederik Carstensen Sarpsborg 08 Ativo 121 / 121 40% 1 02.11.2026 -
Simphiwe Selepe Orlando Pirates Ativo 102 / 124 40% 1 22.10.2026 -
Nikola Krstić IMT Perdido 100 / 110 40% 1 21.10.2026 Mais informações
Sanel Šaljić Austria Wien Ativo 117 / 114 40% 1 18.10.2026 -
Dean Jali Platinum Stars Ativo 110 / 112 40% 1 18.10.2026 -
Shola Ogundana Dynamo Kyiv Ativo 125 / 113 40% 1 12.10.2026 -
David Ozoh Derby County Ativo 128 / 125 40% 1 09.10.2026 -
Agustín Medina Lanús Ativo 116 / 123 40% 2 07.10.2026 -
Pavel Pelevin Spartak Moscow Ativo 66 / 90 40% 1 07.10.2026 -
Yahaya Ibrahim Plateau United Ativo 89 / 96 40% 1 07.09.2026 -
Marko Ćurić Zeleznicar Pancevo Ativo 97 / 87 55% 1 24.08.2026 -